地図

経路データ

SID SEASON NUMBER BASIN SUBBASIN NAME ISO_TIME NATURE LAT LON WMO_WIND WMO_PRES WMO_AGENCY TRACK_TYPE DIST2LAND LANDFALL IFLAG USA_AGENCY USA_ATCF_ID USA_LAT USA_LON USA_RECORD USA_STATUS USA_WIND USA_PRES USA_SSHS USA_R34_NE USA_R34_SE USA_R34_SW USA_R34_NW USA_R50_NE USA_R50_SE USA_R50_SW USA_R50_NW USA_R64_NE USA_R64_SE USA_R64_SW USA_R64_NW USA_POCI USA_ROCI USA_RMW USA_EYE TOKYO_LAT TOKYO_LON TOKYO_GRADE TOKYO_WIND TOKYO_PRES TOKYO_R50_DIR TOKYO_R50_LONG TOKYO_R50_SHORT TOKYO_R30_DIR TOKYO_R30_LONG TOKYO_R30_SHORT TOKYO_LAND CMA_LAT CMA_LON CMA_CAT CMA_WIND CMA_PRES HKO_LAT HKO_LON HKO_CAT HKO_WIND HKO_PRES NEWDELHI_LAT NEWDELHI_LON NEWDELHI_GRADE NEWDELHI_WIND NEWDELHI_PRES NEWDELHI_CI NEWDELHI_DP NEWDELHI_POCI REUNION_LAT REUNION_LON REUNION_TYPE REUNION_WIND REUNION_PRES REUNION_TNUM REUNION_CI REUNION_RMW REUNION_R34_NE REUNION_R34_SE REUNION_R34_SW REUNION_R34_NW REUNION_R50_NE REUNION_R50_SE REUNION_R50_SW REUNION_R50_NW REUNION_R64_NE REUNION_R64_SE REUNION_R64_SW REUNION_R64_NW BOM_LAT BOM_LON BOM_TYPE BOM_WIND BOM_PRES BOM_TNUM BOM_CI BOM_RMW BOM_R34_NE BOM_R34_SE BOM_R34_SW BOM_R34_NW BOM_R50_NE BOM_R50_SE BOM_R50_SW BOM_R50_NW BOM_R64_NE BOM_R64_SE BOM_R64_SW BOM_R64_NW BOM_ROCI BOM_POCI BOM_EYE BOM_POS_METHOD BOM_PRES_METHOD NADI_LAT NADI_LON NADI_CAT NADI_WIND NADI_PRES WELLINGTON_LAT WELLINGTON_LON WELLINGTON_WIND WELLINGTON_PRES DS824_LAT DS824_LON DS824_STAGE DS824_WIND DS824_PRES TD9636_LAT TD9636_LON TD9636_STAGE TD9636_WIND TD9636_PRES TD9635_LAT TD9635_LON TD9635_WIND TD9635_PRES TD9635_ROCI NEUMANN_LAT NEUMANN_LON NEUMANN_CLASS NEUMANN_WIND NEUMANN_PRES MLC_LAT MLC_LON MLC_CLASS MLC_WIND MLC_PRES USA_GUST BOM_GUST BOM_GUST_PER REUNION_GUST REUNION_GUST_PER USA_SEAHGT USA_SEARAD_NE USA_SEARAD_SE USA_SEARAD_SW USA_SEARAD_NW STORM_SPEED STORM_DIR
1993016S06091 1993 4 SI WA EDWINA 1993-01-16 00:00:00 TS -6.30000 90.5000 main 1065 1065 O___________O_ jtwc_sh SH121993 -6.30000 90.5000 10 -1 -6.30000 90.5000 TC 10 4 222
1993016S06091 1993 4 SI WA EDWINA 1993-01-16 03:00:00 TS -6.45000 90.3600 main 1086 1086 P___________P_ SH121993 -6.45000 90.3600 12 -1 -6.45000 90.3600 TC 12 4 225
1993016S06091 1993 4 SI WA EDWINA 1993-01-16 06:00:00 TS -6.60000 90.2000 main 1110 1110 O___________O_ jtwc_sh SH121993 -6.60000 90.2000 15 -1 -6.60000 90.2000 TC 15 5 229
1993016S06091 1993 4 SI WA EDWINA 1993-01-16 09:00:00 TS -6.75000 90.0075 main 1135 1135 P___________P_ SH121993 -6.75000 90.0075 15 -1 -6.75000 90.0075 TC 15 5 233
1993016S06091 1993 4 SI MM EDWINA 1993-01-16 12:00:00 TS -6.90000 89.8000 main 1165 1165 O___________O_ jtwc_sh SH121993 -6.90000 89.8000 15 -1 -6.90000 89.8000 TC 15 5 232
1993016S06091 1993 4 SI MM EDWINA 1993-01-16 15:00:00 TS -7.05748 89.6075 main 1196 1196 P___________P_ SH121993 -7.05748 89.6075 15 -1 -7.05748 89.6075 TC 15 5 233
1993016S06091 1993 4 SI MM EDWINA 1993-01-16 18:00:00 TS -7.20000 89.4000 main 1220 1220 O___________O_ jtwc_sh SH121993 -7.20000 89.4000 15 -1 -7.20000 89.4000 TC 15 5 241
1993016S06091 1993 4 SI MM EDWINA 1993-01-16 21:00:00 TS -7.30750 89.1575 main 1245 1245 P___________P_ SH121993 -7.30750 89.1575 15 -1 -7.30750 89.1575 TC 15 5 248
1993016S06091 1993 4 SI MM EDWINA 1993-01-17 00:00:00 TS -7.40000 88.9000 main 1279 1279 O___________O_ jtwc_sh SH121993 -7.40000 88.9000 15 -1 -7.40000 88.9000 TC 15 5 249
1993016S06091 1993 4 SI MM EDWINA 1993-01-17 03:00:00 TS -7.50000 88.6425 main 1314 1314 P___________P_ SH121993 -7.50000 88.6425 17 -1 -7.50000 88.6425 TC 17 5 248
1993016S06091 1993 4 SI MM EDWINA 1993-01-17 06:00:00 TS -7.60000 88.4000 main 1338 1338 O___________O_ jtwc_sh SH121993 -7.60000 88.4000 20 -1 -7.60000 88.4000 TC 20 5 246
1993016S06091 1993 4 SI MM EDWINA 1993-01-17 09:00:00 TS -7.69998 88.1925 main 1363 1363 P___________P_ SH121993 -7.69998 88.1925 20 -1 -7.69998 88.1925 TC 20 4 243
1993016S06091 1993 4 SI MM EDWINA 1993-01-17 12:00:00 TS -7.80000 88.0000 main 1388 1388 O___________O_ jtwc_sh SH121993 -7.80000 88.0000 20 -1 -7.80000 88.0000 TC 20 4 243
1993016S06091 1993 4 SI MM EDWINA 1993-01-17 15:00:00 TS -7.89999 87.8000 main 1413 1413 P___________P_ SH121993 -7.89999 87.8000 20 -1 -7.89999 87.8000 TC 20 4 243
1993016S06091 1993 4 SI MM EDWINA 1993-01-17 18:00:00 TS -8.00000 87.6000 main 1437 1437 O___________O_ jtwc_sh SH121993 -8.00000 87.6000 20 -1 -8.00000 87.6000 TC 20 4 245
1993016S06091 1993 4 SI MM EDWINA 1993-01-17 21:00:00 TS -8.09250 87.3925 main 1462 1462 P___________P_ SH121993 -8.09250 87.3925 20 -1 -8.09250 87.3925 TC 20 4 243
1993016S06091 1993 4 SI MM EDWINA 1993-01-18 00:00:00 TS -8.20000 87.2000 main 1487 1487 O___________O_ jtwc_sh SH121993 -8.20000 87.2000 20 -1 -8.20000 87.2000 TC 20 4 234
1993016S06091 1993 4 SI MM EDWINA 1993-01-18 03:00:00 TS -8.34249 87.0425 main 1511 1511 P___________P_ SH121993 -8.34249 87.0425 20 -1 -8.34249 87.0425 TC 20 4 224
1993016S06091 1993 4 SI MM EDWINA 1993-01-18 06:00:00 TS -8.50000 86.9000 main 1532 1532 O___________O_ jtwc_sh SH121993 -8.50000 86.9000 20 -1 -8.50000 86.9000 TC 20 4 223
1993016S06091 1993 4 SI MM EDWINA 1993-01-18 09:00:00 TS -8.64999 86.7500 main 1547 1557 P___________P_ SH121993 -8.64999 86.7500 22 -1 -8.64999 86.7500 TC 22 4 224
1993016S06091 1993 4 SI MM EDWINA 1993-01-18 12:00:00 TS -8.80000 86.6000 main 1577 1577 O___________O_ jtwc_sh SH121993 -8.80000 86.6000 25 -1 -8.80000 86.6000 TC 25 4 224
1993016S06091 1993 4 SI MM EDWINA 1993-01-18 15:00:00 TS -8.94999 86.4500 main 1602 1602 P___________P_ SH121993 -8.94999 86.4500 25 -1 -8.94999 86.4500 TC 25 4 224
1993016S06091 1993 4 SI MM EDWINA 1993-01-18 18:00:00 TS -9.10000 86.3000 main 1623 1623 O___________O_ jtwc_sh SH121993 -9.10000 86.3000 25 -1 -9.10000 86.3000 TC 25 4 225
1993016S06091 1993 4 SI MM EDWINA 1993-01-18 21:00:00 TS -9.25000 86.1425 main 1647 1653 P___________P_ SH121993 -9.25000 86.1425 25 -1 -9.25000 86.1425 TC 25 4 224
1993016S06091 1993 4 SI MM EDWINA 1993-01-19 00:00:00 TS -9.40000 86.0000 main 1668 1668 O___________O_ jtwc_sh SH121993 -9.40000 86.0000 25 -1 -9.40000 86.0000 TC 25 4 219
1993016S06091 1993 4 SI MM EDWINA 1993-01-19 03:00:00 TS -9.54999 85.8925 main 1683 1683 P___________P_ SH121993 -9.54999 85.8925 25 -1 -9.54999 85.8925 TC 25 4 213
1993016S06091 1993 4 SI MM EDWINA 1993-01-19 06:00:00 TS -9.70000 85.8000 main 1704 1704 O___________O_ jtwc_sh SH121993 -9.70000 85.8000 25 -1 -9.70000 85.8000 TC 25 4 213
1993016S06091 1993 4 SI MM EDWINA 1993-01-19 09:00:00 TS -9.84250 85.7000 main 1719 1719 P___________P_ SH121993 -9.84250 85.7000 27 -1 -9.84250 85.7000 TC 27 3 223
1993016S06091 1993 4 SI MM EDWINA 1993-01-19 12:00:00 TS -9.93333 85.5778 27 998 reunion main 1734 1734 O____O______O_ jtwc_sh SH121993 -10.0000 85.6000 30 -1 -9.40000 85.4000 2 27 998 2.50000 2.50000 -10.0000 85.6000 TC 30 3 226
1993016S06091 1993 4 SI MM EDWINA 1993-01-19 15:00:00 TS -10.0720 85.4545 main 1755 1755 P____P______P_ SH121993 -10.1925 85.4925 30 -1 -9.59001 85.3025 2 28 996 -10.1925 85.4925 TC 30 4 217
1993016S06091 1993 4 SI MM EDWINA 1993-01-19 18:00:00 TS -10.2364 85.3455 30 995 reunion main 1780 1780 O____O______O_ jtwc_sh SH121993 -10.4000 85.4000 30 -1 -9.80000 85.2000 2 30 995 2.50000 2.50000 -10.4000 85.4000 TC 30 4 209
1993016S06091 1993 4 SI MM EDWINA 1993-01-19 21:00:00 TS -10.4142 85.2633 main 1792 1792 P____P______P_ SH121993 -10.6000 85.3425 30 -1 -10.0425 85.1051 2 31 993 -10.6000 85.3425 TC 30 4 196
1993016S06091 1993 4 SI MM EDWINA 1993-01-20 00:00:00 TS -10.6333 85.2333 33 992 reunion main 1813 1813 O____O______O_ jtwc_sh SH121993 -10.8000 85.3000 30 -1 -10.3000 85.1000 3 33 992 3.00000 3.00000 -10.8000 85.3000 TC 30 4 177
1993016S06091 1993 4 SI MM EDWINA 1993-01-20 03:00:00 TS -10.8450 85.2666 main 1816 1816 P____P______P_ SH121993 -10.9925 85.2575 30 -1 -10.5501 85.2849 3 33 992 -10.9925 85.2575 TC 30 4 171
1993016S06091 1993 4 SI MM EDWINA 1993-01-20 06:00:00 TS -11.0667 85.3000 33 992 reunion main 1834 1834 O____O______O_ jtwc_sh SH121993 -11.2000 85.2000 30 -1 -10.8000 85.5000 3 33 992 3.00000 3.00000 -11.2000 85.2000 TC 30 5 0
1993016S06091 1993 4 SI MM EDWINA 1993-01-20 09:00:00 TS -11.3166 85.2850 main 1847 1847 P____P______P_ SH121993 -11.4500 85.1150 32 -1 -11.0499 85.6249 3 33 992 -11.4500 85.1150 TC 32 5 191
1993016S06091 1993 4 SI MM EDWINA 1993-01-20 12:00:00 TS -11.5667 85.2000 33 992 reunion main 1875 1875 O____O______O_ jtwc_sh SH121993 -11.7000 85.0000 35 0 -11.3000 85.6000 3 33 992 3.00000 3.00000 -11.7000 85.0000 TC 35 5 207
1993016S06091 1993 4 SI MM EDWINA 1993-01-20 15:00:00 TS -11.7933 85.0375 main 1906 1906 P____P______P_ SH121993 -11.9150 84.8725 35 0 -11.5500 85.3675 3 33 992 -11.9150 84.8725 TC 35 6 222
1993016S06091 1993 4 SI MM EDWINA 1993-01-20 18:00:00 TS -12.0000 84.8000 33 992 reunion main 1937 1937 O____O______O_ jtwc_sh SH121993 -12.1000 84.7000 35 0 -11.8000 85.0000 3 33 992 3.00000 3.00000 -12.1000 84.7000 TC 35 6 232
1993016S06091 1993 4 SI MM EDWINA 1993-01-20 21:00:00 TS -12.1883 84.5250 main 1976 1976 P____P______P_ SH121993 -12.2575 84.4799 37 0 -12.0500 84.6150 3 35 991 -12.2575 84.4799 TC 37 7 238
1993016S06091 1993 4 SI MM EDWINA 1993-01-21 00:00:00 TS -12.3667 84.2000 37 990 reunion main 2016 2016 O____O______O_ jtwc_sh SH121993 -12.4000 84.2000 40 0 -12.3000 84.2000 3 37 990 3.00000 3.00000 -12.4000 84.2000 TC 40 8 241
1993016S06091 1993 4 SI MM EDWINA 1993-01-21 03:00:00 TS -12.5550 83.8408 main 2064 2064 P____P______P_ SH121993 -12.5500 83.8650 42 0 -12.5650 83.7925 3 40 987 -12.5500 83.8650 TC 42 8 243
1993016S06091 1993 4 SI MM EDWINA 1993-01-21 06:00:00 TS -12.7333 83.4667 43 985 reunion main 2097 2097 O____O______O_ jtwc_sh SH121993 -12.7000 83.5000 45 0 -12.8000 83.4000 3 43 985 3.50000 3.50000 -12.7000 83.5000 TC 45 8 243
1993016S06091 1993 4 SI MM EDWINA 1993-01-21 09:00:00 TS -12.9057 83.1217 main 2124 2123 P____P______P_ SH121993 -12.8649 83.1575 45 0 -12.9874 83.0500 3 43 985 -12.8649 83.1575 TC 45 7 246
1993016S06091 1993 4 SI MM EDWINA 1993-01-21 12:00:00 TS -13.0333 82.7667 43 985 reunion main 2131 2130 O____O______O_ jtwc_sh SH121993 -13.0000 82.8000 45 0 -13.1000 82.7000 3 43 985 3.50000 3.50000 -13.0000 82.8000 TC 45 7 256
1993016S06091 1993 4 SI MM EDWINA 1993-01-21 15:00:00 TS -13.0791 82.3890 main 2138 2134 P____P______P_ SH121993 -13.0649 82.4149 47 0 -13.1073 82.3373 3 43 985 -13.0649 82.4149 TC 47 8 265
1993016S06091 1993 4 SI MM EDWINA 1993-01-21 18:00:00 TS -13.1000 81.9667 43 985 reunion main 2134 2131 O____O______O_ jtwc_sh SH121993 -13.1000 82.0000 50 0 -13.1000 81.9000 3 43 985 3.50000 3.50000 -13.1000 82.0000 TC 50 9 264
1993016S06091 1993 4 SI MM EDWINA 1993-01-21 21:00:00 TS -13.1667 81.4817 main 2142 2140 P____P______P_ SH121993 -13.1499 81.5650 50 0 -13.2001 81.3152 3 43 985 -13.1499 81.5650 TC 50 10 262
1993016S06091 1993 4 SI MM EDWINA 1993-01-22 00:00:00 TS -13.2333 80.9667 43 985 reunion main 2140 2140 O____O______O_ jtwc_sh SH121993 -13.2000 81.1000 50 0 -13.3000 80.7000 3 43 985 3.50000 3.50000 -13.2000 81.1000 TC 50 10 264
1993016S06091 1993 4 SI MM EDWINA 1993-01-22 03:00:00 TS -13.2690 80.4716 main 2151 2151 P____P______P_ SH121993 -13.2499 80.6150 50 0 -13.3073 80.1849 3 45 982 -13.2499 80.6150 TC 50 10 266
1993016S06091 1993 4 SI MM EDWINA 1993-01-22 06:00:00 TS -13.3000 79.9667 47 980 reunion main 2152 2152 O____O______O_ jtwc_sh SH121993 -13.3000 80.1000 50 0 -13.3000 79.7000 3 47 980 3.50000 3.50000 -13.3000 80.1000 TC 50 10 265
1993016S06091 1993 4 SI MM EDWINA 1993-01-22 09:00:00 TS -13.3499 79.4433 main 2155 2155 P____P______P_ SH121993 -13.3499 79.5650 52 0 -13.3499 79.2001 3 50 977 -13.3499 79.5650 TC 52 10 264
1993016S06091 1993 4 SI MM EDWINA 1993-01-22 12:00:00 TS -13.4000 78.9000 53 975 reunion main 2170 2170 O____O______O_ jtwc_sh SH121993 -13.4000 79.0000 55 0 -13.4000 78.7000 3 53 975 4.00000 4.00000 -13.4000 79.0000 TC 55 11 265
1993016S06091 1993 4 SI MM EDWINA 1993-01-22 15:00:00 TS -13.4357 78.3408 main 2177 2177 P____P______P_ SH121993 -13.4499 78.4075 55 0 -13.4074 78.2075 3 53 975 -13.4499 78.4075 TC 55 11 267
1993016S06091 1993 4 SI MM EDWINA 1993-01-22 18:00:00 TS -13.4667 77.7667 53 975 reunion main 2195 2195 O____O______O_ jtwc_sh SH121993 -13.5000 77.8000 55 0 -13.4000 77.7000 3 53 975 4.00000 4.00000 -13.5000 77.8000 TC 55 11 267
1993016S06091 1993 4 SI MM EDWINA 1993-01-22 21:00:00 TS -13.4999 77.1858 main 2198 2138 P____P______P_ SH121993 -13.5499 77.2000 55 0 -13.3999 77.1575 3 55 972 -13.5499 77.2000 TC 55 11 267
1993016S06091 1993 4 SI MM EDWINA 1993-01-23 00:00:00 TS -13.5333 76.6000 57 970 reunion main 2138 2074 O____O______O_ jtwc_sh SH121993 -13.6000 76.6000 55 0 -13.4000 76.6000 3 57 970 4.50000 4.50000 -13.6000 76.6000 TC 55 11 267
1993016S06091 1993 4 SI MM EDWINA 1993-01-23 03:00:00 TS -13.5616 76.0116 main 2074 2025 P____P______P_ SH121993 -13.6499 76.0000 57 0 -13.3850 76.0349 3 60 967 -13.6499 76.0000 TC 57 11 267
1993016S06091 1993 4 SI MM EDWINA 1993-01-23 06:00:00 TS -13.6000 75.4333 63 965 reunion main 2015 1965 O____O______O_ jtwc_sh SH121993 -13.7000 75.4000 60 0 -13.4000 75.5000 3 63 965 4.50000 4.50000 -13.7000 75.4000 TC 60 11 265
1993016S06091 1993 4 SI MM EDWINA 1993-01-23 09:00:00 TS -13.6515 74.8882 main 1961 1912 P____P______P_ SH121993 -13.7424 74.7999 62 0 -13.4697 75.0649 3 65 960 -13.7424 74.7999 TC 62 11 263
1993016S06091 1993 4 SI MM EDWINA 1993-01-23 12:00:00 TS -13.7333 74.3333 67 955 reunion main 1902 1843 O____O______O_ jtwc_sh SH121993 -13.8000 74.2000 65 1 -13.6000 74.6000 4 67 955 5.00000 5.00000 -13.8000 74.2000 TC 65 12 260
1993016S06091 1993 4 SI MM EDWINA 1993-01-23 15:00:00 TS -13.8591 73.7242 main 1834 1770 P____P______P_ SH121993 -13.8924 73.6000 72 1 -13.7926 73.9726 4 67 955 -13.8924 73.6000 TC 72 12 257
1993016S06091 1993 4 SI MM EDWINA 1993-01-23 18:00:00 TS -14.0000 73.1000 67 955 reunion main 1770 1707 O____O______O_ jtwc_sh SH121993 -14.0000 73.0000 80 1 -14.0000 73.3000 4 67 955 5.00000 5.00000 -14.0000 73.0000 TC 80 12 258
1993016S06091 1993 4 SI MM EDWINA 1993-01-23 21:00:00 TS -14.1165 72.4924 main 1707 1644 P____P______P_ SH121993 -14.0924 72.3999 87 2 -14.1649 72.6774 4 72 952 -14.0924 72.3999 TC 87 12 259
1993016S06091 1993 4 SI MM EDWINA 1993-01-24 00:00:00 TS -14.2333 71.9000 77 950 reunion main 1644 1586 O____O______O_ jtwc_sh SH121993 -14.2000 71.8000 95 2 -14.3000 72.1000 4 77 950 5.00000 5.00000 -14.2000 71.8000 TC 95 12 258
1993016S06091 1993 4 SI MM EDWINA 1993-01-24 03:00:00 TS -14.3615 71.3283 main 1576 1523 P____P______P_ SH121993 -14.3499 71.1926 100 3 -14.3847 71.5997 4 78 947 -14.3499 71.1926 TC 100 11 256
1993016S06091 1993 4 SI MM EDWINA 1993-01-24 06:00:00 TS -14.5000 70.7667 80 945 reunion main 1523 1461 O____O______O_ jtwc_sh SH121993 -14.5000 70.6000 105 3 -14.5000 71.1000 4 80 945 5.50000 5.50000 -14.5000 70.6000 TC 105 11 255
1993016S06091 1993 4 SI MM EDWINA 1993-01-24 09:00:00 TS -14.6523 70.2050 main 1456 1403 P____P______P_ SH121993 -14.5998 70.0423 107 3 -14.7573 70.5303 4 81 942 -14.5998 70.0423 TC 107 11 255
1993016S06091 1993 4 SI MM EDWINA 1993-01-24 12:00:00 TS -14.8000 69.6333 83 940 reunion main 1393 1340 O____O______O_ jtwc_sh SH121993 -14.7000 69.5000 110 3 -15.0000 69.9000 4 83 940 5.50000 5.50000 -14.7000 69.5000 TC 110 12 256
1993016S06091 1993 4 SI MM EDWINA 1993-01-24 15:00:00 TS -14.9266 69.0383 main 1331 1278 P____P______P_ SH121993 -14.8499 68.9500 110 3 -15.0799 69.2147 4 83 940 -14.8499 68.9500 TC 110 12 259
1993016S06091 1993 4 SI MM EDWINA 1993-01-24 18:00:00 TS -15.0333 68.4333 83 940 reunion main 1269 1216 O____O______O_ jtwc_sh SH121993 -15.0000 68.4000 110 3 -15.1000 68.5000 4 83 940 5.50000 5.50000 -15.0000 68.4000 TC 110 12 261
1993016S06091 1993 4 SI MM EDWINA 1993-01-24 21:00:00 TS -15.1116 67.8232 main 1207 1155 P____P______P_ SH121993 -15.0999 67.8498 107 3 -15.1350 67.7699 4 85 937 -15.0999 67.8498 TC 107 12 262
1993016S06091 1993 4 SI MM EDWINA 1993-01-25 00:00:00 TS -15.2000 67.2333 87 935 reunion main 1145 1094 O____O______O_ jtwc_sh SH121993 -15.2000 67.3000 105 3 -15.2000 67.1000 4 87 935 5.50000 5.50000 -15.2000 67.3000 TC 105 11 258
1993016S06091 1993 4 SI MM EDWINA 1993-01-25 03:00:00 TS -15.3448 66.6900 main 1094 1036 P____P______P_ SH121993 -15.3499 66.7500 102 3 -15.3347 66.5700 4 88 932 -15.3499 66.7500 TC 102 11 254
1993016S06091 1993 4 SI MM EDWINA 1993-01-25 06:00:00 TS -15.5000 66.1667 90 930 reunion main 1036 984 O____O______O_ jtwc_sh SH121993 -15.5000 66.2000 100 3 -15.5000 66.1000 4 90 930 6.00000 6.00000 -15.5000 66.2000 TC 100 11 255
1993016S06091 1993 4 SI MM EDWINA 1993-01-25 09:00:00 TS -15.6141 65.6257 main 975 924 P____P______P_ SH121993 -15.5999 65.6423 100 3 -15.6424 65.5924 4 90 930 -15.5999 65.6423 TC 100 11 257
1993016S06091 1993 4 SI MM EDWINA 1993-01-25 12:00:00 TS -15.7333 65.1000 90 930 reunion main 924 867 O____O______O_ jtwc_sh SH121993 -15.7000 65.1000 100 3 -15.8000 65.1000 4 90 930 6.00000 6.00000 -15.7000 65.1000 TC 100 10 255
1993016S06091 1993 4 SI MM EDWINA 1993-01-25 15:00:00 TS -15.8849 64.5991 main 867 819 P____P______P_ SH121993 -15.8349 64.5775 97 3 -15.9849 64.6424 4 90 930 -15.8349 64.5775 TC 97 10 250
1993016S06091 1993 4 SI MM EDWINA 1993-01-25 18:00:00 TS -16.0667 64.1333 90 930 reunion main 810 763 O____O______O_ jtwc_sh SH121993 -16.0000 64.1000 95 2 -16.2000 64.2000 4 90 930 6.00000 6.00000 -16.0000 64.1000 TC 95 9 246
1993016S06091 1993 4 SI MM EDWINA 1993-01-25 21:00:00 TS -16.2632 63.7015 main 763 715 P____P______P_ SH121993 -16.1848 63.6849 95 2 -16.4200 63.7349 4 91 927 -16.1848 63.6849 TC 95 9 242
1993016S06091 1993 4 SI MM EDWINA 1993-01-26 00:00:00 TS -16.5000 63.3000 93 925 reunion main 715 661 O____O______O_ jtwc_sh SH121993 -16.4000 63.3000 95 2 -16.7000 63.3000 4 93 925 6.00000 6.00000 -16.4000 63.3000 TC 95 9 235
1993016S06091 1993 4 SI MM EDWINA 1993-01-26 03:00:00 TS -16.7824 62.9190 main 661 615 P____P______P_ SH121993 -16.6349 62.8999 92 2 -17.0772 62.9572 4 93 925 -16.6349 62.8999 TC 92 10 231
1993016S06091 1993 4 SI MM EDWINA 1993-01-26 06:00:00 TS -17.1000 62.5333 93 925 reunion main 607 553 O____O______O_ jtwc_sh SH121993 -16.9000 62.5000 90 2 -17.5000 62.6000 4 93 925 6.00000 6.00000 -16.9000 62.5000 TC 90 10 231
1993016S06091 1993 4 SI MM EDWINA 1993-01-26 09:00:00 TS -17.4309 62.0900 main 553 499 P____P______P_ SH121993 -17.1850 62.0924 90 2 -17.9228 62.0853 4 93 925 -17.1850 62.0924 TC 90 11 231
1993016S06091 1993 4 SI MM EDWINA 1993-01-26 12:00:00 TS -17.7667 61.6667 93 925 reunion main 493 439 O____O______O_ jtwc_sh SH121993 -17.5000 61.7000 90 2 -18.3000 61.6000 4 93 925 6.00000 6.00000 -17.5000 61.7000 TC 90 10 228
1993016S06091 1993 4 SI MM EDWINA 1993-01-26 15:00:00 TS -18.0782 61.3273 main 439 395 P____P______P_ SH121993 -17.8350 61.3274 90 2 -18.5647 61.3270 4 93 925 -17.8350 61.3274 TC 90 9 224
1993016S06091 1993 4 SI MM EDWINA 1993-01-26 18:00:00 TS -18.4000 61.0333 93 925 reunion main 395 360 O____O______O_ jtwc_sh SH121993 -18.2000 61.0000 90 2 -18.8000 61.1000 4 93 925 6.00000 6.00000 -18.2000 61.0000 TC 90 9 220
1993016S06091 1993 4 SI MM EDWINA 1993-01-26 21:00:00 TS -18.7466 60.7398 main 351 312 P____P______P_ SH121993 -18.5849 60.7348 92 2 -19.0701 60.7500 4 93 925 -18.5849 60.7348 TC 92 9 216
1993016S06091 1993 4 SI MM EDWINA 1993-01-27 00:00:00 TS -19.1333 60.4667 93 925 reunion main 312 266 O____O______O_ jtwc_sh SH121993 -19.0000 60.5000 95 2 -19.4000 60.4000 4 93 925 6.00000 6.00000 -19.0000 60.5000 TC 95 10 212
1993016S06091 1993 4 SI MM EDWINA 1993-01-27 03:00:00 TS -19.5684 60.1868 main 262 232 P____P______P_ SH121993 -19.4350 60.2276 97 3 -19.8350 60.1051 4 93 925 -19.4350 60.2276 TC 97 10 208
1993016S06091 1993 4 SI MM EDWINA 1993-01-27 06:00:00 TS -20.0333 59.9667 93 925 reunion main 232 218 O____O______O_ jtwc_sh SH121993 -19.9000 60.0000 100 3 -20.3000 59.9000 4 93 925 5.50000 6.00000 -19.9000 60.0000 TC 100 10 199
1993016S06091 1993 4 SI MM EDWINA 1993-01-27 09:00:00 TS -20.4849 59.8605 main 219 211 P____P______P_ SH121993 -20.3849 59.8772 100 3 -20.6849 59.8271 4 91 927 -20.3849 59.8772 TC 100 10 189
1993016S06091 1993 4 SI MM EDWINA 1993-01-27 12:00:00 TS -20.9667 59.8000 90 930 reunion main 222 222 O____O______O_ jtwc_sh SH121993 -20.9000 59.8000 100 3 -21.1000 59.8000 4 90 930 5.50000 6.00000 -20.9000 59.8000 TC 100 10 189
1993016S06091 1993 4 SI MM EDWINA 1993-01-27 15:00:00 TS -21.4967 59.6950 main 235 235 P____P______P_ SH121993 -21.4350 59.6925 100 3 -21.6200 59.7001 4 88 932 -21.4350 59.6925 TC 100 11 190
1993016S06091 1993 4 SI MM EDWINA 1993-01-27 18:00:00 TS -22.0667 59.6000 87 935 reunion main 265 265 O____O______O_ jtwc_sh SH121993 -22.0000 59.6000 100 3 -22.2000 59.6000 4 87 935 5.50000 6.00000 -22.0000 59.6000 TC 100 12 187
1993016S06091 1993 4 SI MM EDWINA 1993-01-27 21:00:00 TS -22.6442 59.5424 main 299 299 P____P______P_ SH121993 -22.5775 59.5497 97 3 -22.7775 59.5276 4 85 937 -22.5775 59.5497 TC 97 12 184
1993016S06091 1993 4 SI MM EDWINA 1993-01-28 00:00:00 TS -23.2667 59.5000 83 940 reunion main 363 363 O____O______O_ jtwc_sh SH121993 -23.2000 59.5000 95 2 -23.4000 59.5000 4 83 940 5.50000 5.50000 -23.2000 59.5000 TC 95 13 184
1993016S06091 1993 4 SI MM EDWINA 1993-01-28 03:00:00 TS -23.9342 59.4426 main 418 418 P____P______P_ SH121993 -23.8700 59.3928 95 2 -24.0625 59.5422 4 81 942 -23.8700 59.3928 TC 95 14 184
1993016S06091 1993 4 SI MM EDWINA 1993-01-28 06:00:00 TS -24.6667 59.4000 80 945 reunion main 500 500 O____O______O_ jtwc_sh SH121993 -24.6000 59.3000 95 2 -24.8000 59.6000 4 80 945 5.00000 5.50000 -24.6000 59.3000 TC 95 15 182
1993016S06091 1993 4 SI MM EDWINA 1993-01-28 09:00:00 TS -25.4608 59.3899 main 585 585 P____P______P_ SH121993 -25.3700 59.2774 95 2 -25.6425 59.6150 4 78 947 -25.3700 59.2774 TC 95 16 0
1993016S06091 1993 4 SI MM EDWINA 1993-01-28 12:00:00 TS -26.3000 59.4000 77 950 reunion main 667 667 O____O______O_ jtwc_sh SH121993 -26.2000 59.3000 95 2 -26.5000 59.6000 4 77 950 5.00000 5.00000 -26.2000 59.3000 TC 95 17 179
1993016S06091 1993 4 SI MM EDWINA 1993-01-28 15:00:00 TS -27.1325 59.4287 main 743 743 P____P______P_ SH121993 -27.0775 59.3570 92 2 -27.2425 59.5722 4 70 955 -27.0775 59.3570 TC 92 17 0
1993016S06091 1993 4 SI MM EDWINA 1993-01-28 18:00:00 TS -28.0000 59.4273 63 960 reunion main 831 831 O____O______O_ jtwc_sh SH121993 -28.0000 59.4000 90 2 -28.0000 59.5000 4 63 960 4.50000 5.00000 -28.0000 59.4000 TC 90 18 181
1993016S06091 1993 4 SI MM EDWINA 1993-01-28 21:00:00 TS -28.9330 59.3776 main 920 920 P____P______P_ SH121993 -28.9500 59.3799 87 2 -28.8651 59.3683 4 58 965 -28.9500 59.3799 TC 87 19 184
1993016S06091 1993 4 SI MM EDWINA 1993-01-29 00:00:00 MX -29.8889 59.2889 53 970 reunion main 1019 1019 O____O______O_ jtwc_sh SH121993 -29.9000 59.3000 85 2 -29.8000 59.2000 5 53 970 3.50000 4.50000 -29.9000 59.3000 TC 85 19 186
1993016S06091 1993 4 SI MM EDWINA 1993-01-29 03:00:00 TS -30.8075 59.1651 main 1109 1109 P___________P_ SH121993 -30.8075 59.1651 80 1 5 -30.8075 59.1651 TC 80 18 188
1993016S06091 1993 4 SI MM EDWINA 1993-01-29 06:00:00 TS -31.7000 59.0000 main 1198 1198 O___________O_ jtwc_sh SH121993 -31.7000 59.0000 75 1 -31.7000 59.0000 TC 75 18 189
1993016S06091 1993 4 SI MM EDWINA 1993-01-29 09:00:00 TS -32.6000 58.8206 main 1290 1290 P___________P_ SH121993 -32.6000 58.8206 70 1 -32.6000 58.8206 TC 70 18 188
1993016S06091 1993 4 SI MM EDWINA 1993-01-29 12:00:00 TS -33.5000 58.7000 main 1385 1385 O___________O_ jtwc_sh SH121993 -33.5000 58.7000 65 1 -33.5000 58.7000 TC 65 18 184
1993016S06091 1993 4 SI MM EDWINA 1993-01-29 15:00:00 TS -34.4074 58.6901 main 1482 1482 P___________P_ SH121993 -34.4074 58.6901 57 0 -34.4074 58.6901 TC 57 18 177
1993016S06091 1993 4 SI MM EDWINA 1993-01-29 18:00:00 TS -35.3000 58.8000 main 1582 1582 O___________O_ jtwc_sh SH121993 -35.3000 58.8000 50 0 -35.3000 58.8000 TC 50 18 171
1993016S06091 1993 4 SI MM EDWINA 1993-01-29 21:00:00 TS -36.1602 59.0186 main 1614 1523 P___________P_ SH121993 -36.1602 59.0186 45 0 -36.1602 59.0186 TC 45 18 167
1993016S06091 1993 4 SI MM EDWINA 1993-01-30 00:00:00 TS -37.0000 59.3000 main 1523 O___________O_ jtwc_sh SH121993 -37.0000 59.3000 40 0 -37.0000 59.3000 TC 40 17 165

IBTrACS Databaseについて

本データベースは、米国NOAAが公開する1842年以降の世界の熱帯低気圧のベストトラックデータアーカイブInternational Best Track Archive for Climate Stewardship (IBTrACS)を、ウェブで閲覧しやすい形式に変換したものです。

最終更新日:2021-10-08